CheckWX is a tool to help pilots better visualize weather data.  It is not intended as a substitute for an official pre-flight weather briefing.

07:31:17 UTC

KFNT METAR
Bishop International Airport
Flint, Michigan, USA
Current

38 mins ago

KFNT 230653Z AUTO 22008KT 10SM CLR 03/M06 A3008 RMK AO2 SLP192 T00281061
Observed
Feb-23 @ 06:53 UTC
Wind
  • 220° at 8 KTS
Visibility
10 SM
Flight Rules
VFR
Cloud Levels
  • Clear skies
Temperature
C / 37°F
Dewpoint
-6°C / 21°F
Humidity
52%
Altimeter
30.08" Hg
Pressure
1018.62 hPa
Previous

2 hours ago

KFNT 230553Z AUTO 23008KT 10SM CLR 03/M06 A3008 RMK AO2 SLP194 T00281061 10044 20028 56007
Observed
Feb-23 @ 05:53 UTC
Wind
  • 230° at 8 KTS
Visibility
10 SM
Flight Rules
VFR
Cloud Levels
  • Clear skies
Temperature
C / 37°F
Dewpoint
-6°C / 21°F
Humidity
52%
Altimeter
30.08" Hg
Pressure
1018.62 hPa
Previous

3 hours ago

KFNT 230453Z AUTO 21010KT 10SM CLR 03/M05 A3009 RMK AO2 SLP196 T00331050 400671033
Observed
Feb-23 @ 04:53 UTC
Wind
  • 210° at 10 KTS
Visibility
10 SM
Flight Rules
VFR
Cloud Levels
  • Clear skies
Temperature
C / 37°F
Dewpoint
-5°C / 23°F
Humidity
56%
Altimeter
30.09" Hg
Pressure
1018.92 hPa